createdAt,value
2022-11-27T00:01:12.765Z,1.48
2022-11-27T00:03:40.943Z,1.02
2022-11-27T00:06:11.521Z,1.30
2022-11-27T00:08:38.451Z,1.38
2022-11-27T00:11:10.369Z,1.85
2022-11-27T00:13:37.718Z,1.48
2022-11-27T00:18:32.261Z,1.45
2022-11-27T00:23:33.437Z,1.20
2022-11-27T00:26:00.179Z,1.70
2022-11-27T00:28:26.935Z,1.15
2022-11-27T00:30:53.684Z,1.10
2022-11-27T00:33:20.376Z,1.13
2022-11-27T00:35:47.039Z,1.60
2022-11-27T00:38:13.722Z,1.48
2022-11-27T00:40:40.598Z,0.80
2022-11-27T00:43:07.309Z,1.85
2022-11-27T00:45:34.015Z,1.13
2022-11-27T00:48:00.681Z,1.60
2022-11-27T00:50:28.850Z,1.52
2022-11-27T00:52:55.519Z,1.90
2022-11-27T00:55:22.212Z,1.15
2022-11-27T00:57:48.893Z,1.30
2022-11-27T01:00:16.172Z,1.48
2022-11-27T01:05:09.817Z,2.08
2022-11-27T01:07:36.579Z,2.70
2022-11-27T01:10:03.634Z,3.13
2022-11-27T01:12:30.313Z,3.63
2022-11-27T01:14:57.150Z,3.72
2022-11-27T01:17:23.833Z,4.15
2022-11-27T01:19:50.553Z,4.20
2022-11-27T01:22:17.281Z,3.67
2022-11-27T01:24:44.099Z,3.20
2022-11-27T01:27:10.807Z,2.60
2022-11-27T01:29:37.605Z,2.92
2022-11-27T01:32:04.488Z,2.50
2022-11-27T01:34:31.187Z,2.92
2022-11-27T01:36:57.884Z,2.25
2022-11-27T01:39:24.746Z,3.40
2022-11-27T01:41:51.440Z,2.40
2022-11-27T01:44:23.920Z,2.75
2022-11-27T01:47:00.144Z,2.47
2022-11-27T01:49:41.218Z,2.30
2022-11-27T01:52:13.106Z,2.40
2022-11-27T01:54:46.851Z,2.10
2022-11-27T01:57:28.331Z,2.58
2022-11-27T01:59:57.703Z,2.33
2022-11-27T02:02:24.533Z,2.30
2022-11-27T02:04:51.941Z,2.83
2022-11-27T02:09:45.671Z,2.80
2022-11-27T02:12:25.052Z,2.80
2022-11-27T02:15:14.837Z,2.70
2022-11-27T02:18:06.395Z,2.30
2022-11-27T02:20:40.602Z,2.35
2022-11-27T02:23:22.709Z,2.80
2022-11-27T02:26:01.131Z,3.00
2022-11-27T02:28:58.770Z,2.60
2022-11-27T02:31:25.487Z,3.05
2022-11-27T02:33:56.228Z,2.63
2022-11-27T02:36:28.988Z,2.67
2022-11-27T02:39:14.125Z,2.50
2022-11-27T02:41:59.626Z,2.72
2022-11-27T02:44:30.237Z,3.28
2022-11-27T02:46:57.426Z,2.70
2022-11-27T02:49:24.269Z,4.60
2022-11-27T02:51:57.842Z,3.90
2022-11-27T02:54:30.691Z,3.30
2022-11-27T02:57:00.910Z,2.90
2022-11-27T02:59:31.135Z,2.97
2022-11-27T03:02:09.583Z,3.28
2022-11-27T03:04:43.231Z,2.65
2022-11-27T03:07:15.908Z,2.58
2022-11-27T03:09:48.297Z,2.30
2022-11-27T03:12:17.279Z,2.75
2022-11-27T03:14:45.186Z,2.67
2022-11-27T03:17:20.375Z,3.22
2022-11-27T03:19:53.239Z,3.08
2022-11-27T03:22:20.089Z,3.42
2022-11-27T03:24:49.750Z,3.38
2022-11-27T03:27:22.798Z,3.67
2022-11-27T03:29:54.260Z,3.92
2022-11-27T03:32:21.635Z,4.95
2022-11-27T03:37:15.636Z,4.72
2022-11-27T03:39:42.779Z,5.05
2022-11-27T03:42:34.107Z,5.38
2022-11-27T03:45:36.306Z,5.35
2022-11-27T03:48:02.972Z,5.80
2022-11-27T03:50:41.396Z,6.15
2022-11-27T03:53:33.423Z,6.22
2022-11-27T03:56:30.855Z,5.63
2022-11-27T03:59:29.145Z,5.82
2022-11-27T04:01:55.937Z,3.60
2022-11-27T04:04:22.723Z,6.22
2022-11-27T04:06:49.477Z,4.15
2022-11-27T04:09:16.195Z,5.57
2022-11-27T04:11:42.897Z,3.65
2022-11-27T04:14:09.700Z,5.43
2022-11-27T04:16:36.481Z,5.45
2022-11-27T04:19:28.395Z,5.65
2022-11-27T04:25:15.968Z,4.38
2022-11-27T04:27:42.683Z,4.65
2022-11-27T04:30:11.838Z,2.97
2022-11-27T04:32:38.671Z,4.47
2022-11-27T04:35:05.767Z,4.70
2022-11-27T04:37:32.485Z,4.22
2022-11-27T04:39:59.435Z,2.97
2022-11-27T04:42:26.238Z,4.95
2022-11-27T04:44:53.015Z,4.53
2022-11-27T04:47:19.753Z,3.15
2022-11-27T04:49:46.440Z,5.03
2022-11-27T04:52:13.161Z,4.90
2022-11-27T04:54:40.288Z,4.43
2022-11-27T04:59:33.725Z,4.00
2022-11-27T05:02:00.400Z,3.42
2022-11-27T05:04:27.162Z,4.72
2022-11-27T05:06:54.016Z,4.40
2022-11-27T05:09:20.795Z,4.50
2022-11-27T05:11:48.261Z,2.95
2022-11-27T05:14:15.001Z,3.95
2022-11-27T05:16:42.691Z,3.78
2022-11-27T05:19:10.546Z,4.13
2022-11-27T05:21:38.160Z,4.45
2022-11-27T05:24:05.302Z,4.38
2022-11-27T05:26:32.369Z,4.47
2022-11-27T05:28:59.346Z,4.80
2022-11-27T05:31:26.088Z,4.07
2022-11-27T05:33:52.980Z,4.32
2022-11-27T05:36:19.829Z,4.18
2022-11-27T05:38:46.860Z,4.25
2022-11-27T05:41:13.761Z,4.82
2022-11-27T05:43:41.819Z,4.38
2022-11-27T05:46:11.186Z,3.95
2022-11-27T05:48:38.177Z,4.70
2022-11-27T05:51:05.637Z,4.75
2022-11-27T05:53:32.703Z,4.55
2022-11-27T05:56:04.233Z,4.00
2022-11-27T05:58:31.205Z,4.80
2022-11-27T06:00:58.314Z,4.13
2022-11-27T06:03:25.776Z,4.65
2022-11-27T06:05:53.180Z,4.68
2022-11-27T06:10:47.888Z,5.35
2022-11-27T06:13:14.693Z,5.35
2022-11-27T06:15:42.248Z,4.28
2022-11-27T06:18:11.098Z,5.88
2022-11-27T06:20:43.365Z,5.63
2022-11-27T06:23:10.920Z,5.75
2022-11-27T06:25:37.608Z,4.57
2022-11-27T06:28:04.430Z,4.40
2022-11-27T06:30:31.103Z,6.03
2022-11-27T06:32:57.755Z,4.93
2022-11-27T06:35:24.455Z,3.88
2022-11-27T06:37:51.306Z,3.75
2022-11-27T06:40:18.146Z,4.75
2022-11-27T06:42:44.975Z,4.97
2022-11-27T06:45:11.771Z,4.82
2022-11-27T06:47:38.450Z,8.32
2022-11-27T06:50:05.797Z,6.70
2022-11-27T06:55:07.114Z,5.32
2022-11-27T06:57:33.812Z,4.65
2022-11-27T07:00:00.507Z,5.70
2022-11-27T07:02:27.367Z,3.42
2022-11-27T07:04:54.097Z,5.00
2022-11-27T07:07:20.889Z,4.72
2022-11-27T07:09:47.625Z,4.88
2022-11-27T07:12:14.292Z,3.22
2022-11-27T07:14:42.150Z,5.10
2022-11-27T07:17:09.019Z,4.07
2022-11-27T07:19:35.706Z,3.90
2022-11-27T07:22:03.213Z,4.10
2022-11-27T07:24:30.203Z,4.18
2022-11-27T07:26:56.879Z,4.00
2022-11-27T07:29:23.565Z,3.10
2022-11-27T07:31:51.419Z,3.75
2022-11-27T07:34:21.662Z,3.30
2022-11-27T07:36:48.810Z,4.05
2022-11-27T07:39:25.253Z,3.83
2022-11-27T07:42:23.185Z,4.43
2022-11-27T07:44:47.956Z,4.35
2022-11-27T07:47:14.773Z,4.25
2022-11-27T07:49:41.512Z,4.05
2022-11-27T07:52:08.196Z,4.90
2022-11-27T07:54:36.096Z,4.57
2022-11-27T07:57:02.801Z,5.95
2022-11-27T07:59:29.796Z,4.75
2022-11-27T08:01:56.540Z,6.32
2022-11-27T08:04:23.357Z,5.47
2022-11-27T08:06:50.210Z,8.60
2022-11-27T08:09:16.916Z,8.38
2022-11-27T08:11:43.631Z,8.38
2022-11-27T08:14:12.648Z,5.90
2022-11-27T08:16:39.468Z,7.20
2022-11-27T08:19:06.211Z,7.07
2022-11-27T08:21:33.106Z,8.80
2022-11-27T08:23:59.799Z,5.20
2022-11-27T08:26:29.552Z,4.85
2022-11-27T08:28:57.357Z,7.97
2022-11-27T08:31:24.798Z,12.63
2022-11-27T08:33:51.784Z,7.20
2022-11-27T08:36:18.657Z,8.95
2022-11-27T08:38:46.191Z,7.35
2022-11-27T08:41:13.032Z,7.35
2022-11-27T08:43:39.695Z,7.13
2022-11-27T08:46:07.368Z,7.15
2022-11-27T08:48:34.472Z,7.95
2022-11-27T08:51:06.338Z,7.50
2022-11-27T08:53:33.066Z,6.93
2022-11-27T08:56:09.360Z,11.13
2022-11-27T08:58:36.212Z,8.50
2022-11-27T09:01:30.593Z,2.97
2022-11-27T09:03:57.830Z,3.45
2022-11-27T09:06:30.139Z,2.70
2022-11-27T09:09:01.355Z,3.20
2022-11-27T09:11:33.526Z,2.78
2022-11-27T09:14:01.670Z,2.45
2022-11-27T09:16:30.159Z,2.40
2022-11-27T09:18:57.864Z,2.40
2022-11-27T09:21:30.233Z,3.08
2022-11-27T09:23:59.367Z,2.33
2022-11-27T09:26:26.763Z,4.05
2022-11-27T09:31:21.197Z,2.85
2022-11-27T09:33:48.257Z,2.35
2022-11-27T09:36:18.369Z,3.83
2022-11-27T09:38:45.638Z,3.50
2022-11-27T09:41:21.377Z,2.80
2022-11-27T09:43:59.491Z,2.60
2022-11-27T09:46:34.337Z,4.35
2022-11-27T09:49:04.633Z,3.72
2022-11-27T09:51:34.144Z,3.00
2022-11-27T09:54:17.063Z,3.78
2022-11-27T09:56:48.639Z,2.10
2022-11-27T09:59:18.898Z,8.00
2022-11-27T10:01:50.663Z,3.13
2022-11-27T10:04:19.950Z,2.30
2022-11-27T10:07:11.855Z,2.22
2022-11-27T10:10:10.713Z,1.88
2022-11-27T10:12:44.725Z,1.77
2022-11-27T10:15:11.352Z,1.73
2022-11-27T10:17:43.310Z,1.60
2022-11-27T10:20:23.276Z,1.50
2022-11-27T10:23:02.024Z,2.22
2022-11-27T10:25:46.161Z,3.67
2022-11-27T10:31:46.940Z,1.60
2022-11-27T10:34:25.660Z,1.60
2022-11-27T10:36:56.105Z,3.88
2022-11-27T10:39:32.907Z,2.30
2022-11-27T10:42:24.165Z,3.50
2022-11-27T10:45:04.395Z,3.45
2022-11-27T10:47:33.937Z,3.40
2022-11-27T10:50:01.683Z,3.20
2022-11-27T10:52:28.456Z,4.03
2022-11-27T10:55:02.696Z,3.92
2022-11-27T10:57:41.084Z,2.60
2022-11-27T11:00:14.878Z,3.42
2022-11-27T11:02:42.258Z,2.53
2022-11-27T11:08:06.448Z,2.05
2022-11-27T11:10:44.223Z,1.48
2022-11-27T11:13:27.777Z,3.80
2022-11-27T11:16:05.205Z,2.38
2022-11-27T11:18:34.495Z,2.78
2022-11-27T11:21:07.596Z,1.40
2022-11-27T11:23:38.171Z,1.80
2022-11-27T11:26:36.090Z,2.53
2022-11-27T11:29:07.013Z,1.75
2022-11-27T11:31:39.791Z,2.95
2022-11-27T11:34:13.948Z,3.50
2022-11-27T11:36:42.307Z,2.78
2022-11-27T11:39:26.923Z,2.35
2022-11-27T11:41:53.663Z,2.30
2022-11-27T11:44:40.583Z,2.17
2022-11-27T11:47:18.136Z,2.03
2022-11-27T11:49:46.044Z,1.80
2022-11-27T11:52:22.120Z,1.70
2022-11-27T11:55:44.491Z,1.95
2022-11-27T11:58:21.216Z,1.60
2022-11-27T12:01:30.130Z,1.65
2022-11-27T12:04:05.494Z,2.00
2022-11-27T12:06:41.177Z,1.77
2022-11-27T12:09:22.062Z,1.80
2022-11-27T12:11:48.741Z,1.83
2022-11-27T12:14:43.499Z,1.92
2022-11-27T12:17:20.057Z,1.77
2022-11-27T12:20:17.693Z,1.83
2022-11-27T12:23:03.003Z,2.10
2022-11-27T12:25:54.099Z,1.95
2022-11-27T12:28:39.795Z,2.08
2022-11-27T12:31:09.167Z,1.85
2022-11-27T12:34:03.409Z,2.13
2022-11-27T12:36:42.084Z,1.98
2022-11-27T12:39:10.623Z,1.35
2022-11-27T12:42:25.657Z,1.73
2022-11-27T12:45:16.840Z,1.55
2022-11-27T12:47:49.083Z,1.92
2022-11-27T12:50:27.323Z,1.90
2022-11-27T12:53:04.871Z,2.28
2022-11-27T12:55:33.815Z,1.73
2022-11-27T12:58:07.685Z,1.42
2022-11-27T13:00:38.090Z,1.42
2022-11-27T13:03:28.766Z,1.70
2022-11-27T13:06:06.362Z,2.38
2022-11-27T13:09:02.020Z,1.90
2022-11-27T13:11:37.320Z,1.67
2022-11-27T13:14:18.614Z,2.10
2022-11-27T13:16:50.202Z,1.73
2022-11-27T13:19:36.135Z,2.92
2022-11-27T13:22:14.233Z,3.45
2022-11-27T13:24:41.318Z,2.85
2022-11-27T13:27:15.781Z,2.38
2022-11-27T13:29:53.167Z,6.68
2022-11-27T13:32:32.206Z,3.25
2022-11-27T13:35:02.882Z,2.83
2022-11-27T13:37:39.124Z,3.60
2022-11-27T13:40:28.743Z,7.50
2022-11-27T13:42:58.065Z,5.18
2022-11-27T13:45:31.263Z,5.45
2022-11-27T13:48:00.889Z,7.75
2022-11-27T13:50:31.257Z,7.25
2022-11-27T13:53:06.129Z,5.50
2022-11-27T13:55:38.326Z,5.82
2022-11-27T13:58:06.757Z,5.43
2022-11-27T14:00:38.308Z,10.15
2022-11-27T14:03:06.764Z,8.43
2022-11-27T14:05:38.688Z,5.88
2022-11-27T14:08:22.495Z,7.43
2022-11-27T14:10:57.416Z,4.50
2022-11-27T14:13:38.324Z,8.13
2022-11-27T14:16:29.940Z,6.32
2022-11-27T14:19:06.888Z,6.40
2022-11-27T14:21:39.243Z,8.20
2022-11-27T14:24:27.730Z,7.70
2022-11-27T14:26:55.031Z,7.30
2022-11-27T14:29:23.302Z,6.05
2022-11-27T14:32:17.555Z,5.63
2022-11-27T14:34:45.400Z,4.20
2022-11-27T14:37:26.870Z,8.82
2022-11-27T14:39:54.615Z,8.73
2022-11-27T14:42:30.235Z,8.48
2022-11-27T14:45:10.812Z,8.80
2022-11-27T14:47:40.817Z,5.20
2022-11-27T14:50:10.792Z,8.07
2022-11-27T14:52:37.767Z,4.30
2022-11-27T14:55:05.217Z,7.47
2022-11-27T14:57:32.170Z,3.88
2022-11-27T15:00:16.623Z,4.15
2022-11-27T15:02:43.721Z,4.93
2022-11-27T15:05:21.179Z,4.80
2022-11-27T15:08:00.857Z,4.38
2022-11-27T15:10:32.866Z,4.55
2022-11-27T15:13:01.084Z,5.47
2022-11-27T15:15:32.913Z,5.25
2022-11-27T15:18:03.360Z,5.68
2022-11-27T15:20:40.164Z,5.90
2022-11-27T15:23:34.369Z,4.75
2022-11-27T15:26:06.372Z,3.80
2022-11-27T15:28:43.222Z,4.47
2022-11-27T15:31:50.798Z,4.93
2022-11-27T15:34:17.462Z,5.88
2022-11-27T15:36:48.449Z,8.77
2022-11-27T15:39:25.566Z,12.45
2022-11-27T15:41:53.764Z,4.80
2022-11-27T15:44:20.737Z,5.20
2022-11-27T15:46:47.640Z,4.57
2022-11-27T15:49:15.349Z,4.10
2022-11-27T15:51:42.830Z,4.30
2022-11-27T15:54:09.563Z,3.80
2022-11-27T15:56:36.281Z,3.65
2022-11-27T15:59:04.182Z,2.38
2022-11-27T16:01:30.953Z,4.07
2022-11-27T16:03:58.154Z,1.83
2022-11-27T16:06:25.690Z,2.25
2022-11-27T16:09:00.186Z,2.58
2022-11-27T16:11:29.005Z,3.47
2022-11-27T16:13:55.862Z,3.47
2022-11-27T16:16:23.534Z,4.25
2022-11-27T16:18:50.512Z,5.40
2022-11-27T16:21:18.105Z,6.10
2022-11-27T16:23:44.851Z,8.60
2022-11-27T16:26:13.111Z,6.47
2022-11-27T16:28:40.321Z,14.95
2022-11-27T16:32:26.448Z,9.43
2022-11-27T16:34:53.244Z,5.03
2022-11-27T16:37:20.061Z,4.00
2022-11-27T16:39:46.809Z,5.03
2022-11-27T16:42:13.686Z,5.32
2022-11-27T16:44:43.046Z,4.90
2022-11-27T16:47:10.171Z,5.05
2022-11-27T16:49:37.132Z,4.38
2022-11-27T16:52:04.203Z,8.27
2022-11-27T16:54:30.896Z,11.27
2022-11-27T16:56:57.838Z,21.00
2022-11-27T16:59:24.941Z,28.00
2022-11-27T17:01:51.981Z,17.00
2022-11-27T17:04:19.829Z,9.48
2022-11-27T17:06:48.317Z,13.45
2022-11-27T17:09:15.697Z,14.82
2022-11-27T17:14:10.880Z,13.85
2022-11-27T17:16:42.611Z,14.88
2022-11-27T17:19:13.374Z,12.35
2022-11-27T17:21:41.586Z,12.85
2022-11-27T17:24:15.262Z,16.00
2022-11-27T17:26:46.093Z,18.73
2022-11-27T17:29:18.320Z,17.75
2022-11-27T17:31:45.265Z,13.55
2022-11-27T17:34:14.635Z,11.23
2022-11-27T17:36:42.991Z,9.50
2022-11-27T17:39:13.100Z,5.70
2022-11-27T17:41:40.973Z,5.88
2022-11-27T17:44:08.075Z,5.15
2022-11-27T17:46:36.217Z,4.85
2022-11-27T17:49:07.012Z,5.50
2022-11-27T17:51:35.653Z,7.28
2022-11-27T17:54:03.806Z,15.88
2022-11-27T17:56:32.787Z,12.05
2022-11-27T17:58:59.882Z,9.13
2022-11-27T18:01:28.999Z,7.70
2022-11-27T18:03:59.743Z,9.68
2022-11-27T18:06:29.376Z,7.40
2022-11-27T18:08:57.993Z,8.18
2022-11-27T18:11:28.535Z,10.80
2022-11-27T18:13:58.390Z,10.60
2022-11-27T18:16:29.410Z,12.38
2022-11-27T18:18:57.453Z,12.63
2022-11-27T18:21:27.035Z,14.57
2022-11-27T18:24:25.650Z,20.20
2022-11-27T18:29:28.917Z,12.63
2022-11-27T18:31:55.650Z,7.22
2022-11-27T18:34:22.370Z,11.55
2022-11-27T18:36:49.052Z,7.78
2022-11-27T18:39:15.795Z,6.95
2022-11-27T18:41:42.468Z,8.70
2022-11-27T18:44:09.185Z,12.15
2022-11-27T18:46:36.082Z,9.48
2022-11-27T18:49:02.824Z,8.98
2022-11-27T18:51:29.615Z,8.32
2022-11-27T18:53:58.292Z,8.32
2022-11-27T18:56:27.457Z,9.30
2022-11-27T18:58:54.637Z,9.82
2022-11-27T19:01:25.803Z,9.35
2022-11-27T19:03:52.959Z,8.50
2022-11-27T19:06:21.610Z,8.23
2022-11-27T19:08:49.040Z,8.48
2022-11-27T19:11:18.712Z,8.10
2022-11-27T19:13:45.935Z,6.53
2022-11-27T19:16:19.399Z,6.32
2022-11-27T19:18:46.569Z,5.57
2022-11-27T19:21:19.051Z,5.70
2022-11-27T19:23:45.955Z,8.43
2022-11-27T19:26:22.822Z,6.60
2022-11-27T19:28:54.498Z,7.37
2022-11-27T19:31:24.921Z,7.53
2022-11-27T19:33:58.727Z,6.38
2022-11-27T19:36:26.860Z,11.30
2022-11-27T19:39:03.889Z,9.40
2022-11-27T19:41:30.917Z,12.43
2022-11-27T19:44:01.903Z,11.35
2022-11-27T19:46:30.514Z,7.63
2022-11-27T19:48:59.175Z,5.50
2022-11-27T19:51:27.545Z,4.57
2022-11-27T19:53:54.547Z,4.70
2022-11-27T19:56:23.688Z,24.65
2022-11-27T20:01:19.746Z,9.45
2022-11-27T20:03:48.286Z,9.05
2022-11-27T20:06:18.540Z,7.07
2022-11-27T20:08:47.445Z,10.82
2022-11-27T20:11:17.304Z,23.48
2022-11-27T20:13:44.115Z,10.38
2022-11-27T20:16:13.826Z,11.55
2022-11-27T20:18:41.380Z,10.23
2022-11-27T20:21:23.248Z,18.67
2022-11-27T20:23:52.119Z,10.75
2022-11-27T20:26:22.293Z,7.13
2022-11-27T20:28:50.184Z,7.88
2022-11-27T20:31:36.310Z,6.60
2022-11-27T20:34:05.644Z,5.93
2022-11-27T20:36:35.348Z,5.57
2022-11-27T20:39:02.901Z,4.85
2022-11-27T20:41:30.378Z,6.20
2022-11-27T20:46:25.773Z,5.50
2022-11-27T20:48:53.929Z,6.22
2022-11-27T20:51:24.075Z,6.97
2022-11-27T20:53:51.976Z,8.00
2022-11-27T20:56:20.032Z,6.07
2022-11-27T20:58:48.010Z,5.45
2022-11-27T21:01:32.995Z,6.75
2022-11-27T21:04:04.235Z,8.18
2022-11-27T21:06:32.213Z,7.20
2022-11-27T21:09:04.328Z,5.63
2022-11-27T21:11:32.154Z,5.82
2022-11-27T21:14:02.469Z,5.47
2022-11-27T21:16:32.349Z,5.20
2022-11-27T21:19:05.583Z,6.03
2022-11-27T21:21:32.884Z,5.25
2022-11-27T21:24:00.263Z,5.45
2022-11-27T21:26:28.217Z,6.45
2022-11-27T21:28:55.001Z,5.20
2022-11-27T21:31:24.798Z,5.22
2022-11-27T21:33:56.729Z,4.50
2022-11-27T21:36:27.145Z,4.60
2022-11-27T21:38:54.279Z,4.85
2022-11-27T21:41:21.668Z,4.97
2022-11-27T21:46:19.250Z,3.47
2022-11-27T21:48:47.792Z,4.72
2022-11-27T21:51:15.735Z,4.75
2022-11-27T21:53:43.693Z,4.80
2022-11-27T21:56:12.269Z,5.10
2022-11-27T21:58:39.265Z,4.45
2022-11-27T22:01:08.871Z,4.28
2022-11-27T22:03:41.100Z,4.10
2022-11-27T22:06:14.967Z,4.05
2022-11-27T22:08:43.625Z,4.38
2022-11-27T22:11:13.065Z,4.72
2022-11-27T22:13:41.443Z,4.47
2022-11-27T22:16:14.320Z,5.55
2022-11-27T22:18:41.612Z,5.03
2022-11-27T22:21:10.295Z,4.50
2022-11-27T22:23:37.492Z,5.13
2022-11-27T22:28:32.659Z,4.20
2022-11-27T22:30:59.530Z,4.15
2022-11-27T22:33:26.314Z,4.55
2022-11-27T22:35:53.014Z,4.95
2022-11-27T22:38:19.744Z,4.93
2022-11-27T22:40:46.682Z,4.80
2022-11-27T22:43:13.353Z,4.88
2022-11-27T22:45:41.510Z,4.68
2022-11-27T22:48:08.380Z,4.65
2022-11-27T22:50:35.098Z,3.53
2022-11-27T22:53:02.285Z,5.10
2022-11-27T22:55:29.015Z,6.05
2022-11-27T22:57:55.694Z,4.30
2022-11-27T23:00:23.128Z,3.42
2022-11-27T23:02:50.276Z,4.35
2022-11-27T23:05:17.374Z,4.55
2022-11-27T23:07:44.102Z,4.43
2022-11-27T23:10:11.379Z,4.18
2022-11-27T23:12:38.076Z,4.35
2022-11-27T23:15:05.320Z,4.20
2022-11-27T23:19:58.589Z,4.25
2022-11-27T23:22:25.268Z,4.20
2022-11-27T23:24:53.665Z,3.00
2022-11-27T23:27:20.725Z,4.20
2022-11-27T23:29:47.431Z,3.90
2022-11-27T23:32:14.199Z,4.20
2022-11-27T23:34:41.313Z,4.00
2022-11-27T23:37:08.294Z,3.95
2022-11-27T23:39:35.063Z,4.25
2022-11-27T23:42:02.200Z,3.25
2022-11-27T23:46:55.804Z,3.47
2022-11-27T23:49:23.562Z,3.42
2022-11-27T23:51:50.292Z,4.40
2022-11-27T23:54:16.982Z,3.97
2022-11-27T23:56:44.088Z,4.30
2022-11-27T23:59:10.892Z,3.35
